Time;durP1;ratioP1;P1;durP2;ratioP2;P2;SDS_P1;SDS_P2;PMS_P1;PMS_P2;Temp;Humidity;BMP_temperature;BMP_pressure;BME280_temperature;BME280_humidity;BME280_pressure;Samples;Min_cycle;Max_cycle;Signal;HPM_P1;HPM_P2
2022/01/13 00:01:46;;;;;;;3.97;1.17;;;;;;;15.51;55.92;101306.88;4971629;28;20511;-75
2022/01/13 00:04:15;;;;;;;1.98;1.15;;;;;;;15.48;55.58;101312.03;4971948;28;20523;-75
2022/01/13 00:06:44;;;;;;;3.00;1.27;;;;;;;15.46;55.01;101317.25;4971283;28;20051;-76
2022/01/13 00:09:13;;;;;;;2.00;1.05;;;;;;;15.40;57.51;101311.03;4972016;28;20138;-75
2022/01/13 00:11:57;;;;;;;2.83;1.20;;;;;;;15.33;56.99;101303.94;4971453;28;20065;-75
2022/01/13 00:17:43;;;;;;;2.30;1.38;;;;;;;15.24;56.80;101310.72;4969700;28;20050;-77
2022/01/13 00:20:29;;;;;;;8.15;1.77;;;;;;;15.22;55.43;101317.63;4972023;28;20047;-75
2022/01/13 00:25:43;;;;;;;2.33;1.30;;;;;;;15.15;57.86;101309.69;4958662;28;20178;-76
2022/01/13 00:28:17;;;;;;;2.15;1.20;;;;;;;15.03;58.96;101302.50;4972059;28;20115;-78
2022/01/13 00:30:50;;;;;;;3.72;1.55;;;;;;;14.92;59.20;101290.97;4972238;28;20478;-78
2022/01/13 00:33:23;;;;;;;2.92;1.02;;;;;;;14.91;60.02;101302.22;4971190;28;20054;-77
2022/01/13 00:35:53;;;;;;;3.85;1.23;;;;;;;14.78;62.49;101294.16;4971617;28;20050;-77
2022/01/13 00:38:21;;;;;;;3.30;1.45;;;;;;;14.68;63.11;101302.63;4970863;28;20059;-77
2022/01/13 00:40:50;;;;;;;3.70;1.65;;;;;;;14.62;59.44;101299.91;4969847;28;20504;-78
2022/01/13 00:43:19;;;;;;;4.32;1.58;;;;;;;14.58;60.31;101306.75;4970862;28;20065;-76
2022/01/13 00:45:49;;;;;;;3.30;1.55;;;;;;;14.54;62.00;101301.41;4971707;28;20149;-74
2022/01/13 00:48:18;;;;;;;3.53;1.58;;;;;;;14.46;62.11;101290.84;4957777;28;20142;-77
2022/01/13 00:50:47;;;;;;;3.05;1.40;;;;;;;14.37;63.01;101285.44;4971658;28;20042;-75
2022/01/13 00:53:16;;;;;;;5.40;1.50;;;;;;;14.26;63.34;101282.59;4970591;28;20051;-75
2022/01/13 00:55:57;;;;;;;5.72;1.92;;;;;;;14.18;62.98;101273.75;4970888;28;20472;-75
2022/01/13 00:58:27;;;;;;;3.65;1.85;;;;;;;14.09;64.72;101278.69;4971215;28;20059;-77
2022/01/13 01:00:59;;;;;;;3.70;1.88;;;;;;;13.96;65.44;101270.63;4971265;28;20047;-76
2022/01/13 01:03:28;;;;;;;3.95;2.13;;;;;;;13.87;66.73;101270.38;4970808;28;20051;-76
2022/01/13 01:05:58;;;;;;;4.05;2.53;;;;;;;13.79;66.54;101265.03;4971009;28;20054;-76
2022/01/13 01:08:27;;;;;;;7.47;2.88;;;;;;;13.69;67.13;101255.22;4971416;28;20473;-77
2022/01/13 01:10:57;;;;;;;8.50;3.03;;;;;;;13.59;67.54;101243.72;4973994;28;20496;-77
2022/01/13 01:13:29;;;;;;;8.00;2.78;;;;;;;13.51;68.06;101242.63;4971613;28;20085;-75
2022/01/13 01:16:01;;;;;;;16.20;4.40;;;;;;;13.46;68.70;101248.56;4971353;28;20051;-77
2022/01/13 01:18:36;;;;;;;5.30;2.75;;;;;;;13.36;69.45;101247.47;4972988;28;20062;-77
2022/01/13 01:24:43;;;;;;;5.38;2.83;;;;;;;13.15;70.53;101221.75;4956581;28;20047;-76
2022/01/13 01:27:18;;;;;;;3.88;2.15;;;;;;;13.02;69.88;101215.34;4975144;28;20046;-77
2022/01/13 01:29:55;;;;;;;7.50;2.35;;;;;;;12.93;69.96;101204.72;4975366;28;20073;-75
2022/01/13 01:32:29;;;;;;;5.60;2.28;;;;;;;12.83;70.40;101213.06;4974245;28;20129;-76
2022/01/13 01:35:01;;;;;;;6.47;2.58;;;;;;;12.72;70.27;101216.25;4975216;28;20046;-78
2022/01/13 01:37:30;;;;;;;7.93;2.85;;;;;;;12.65;71.33;101218.66;4961214;28;20087;-80
2022/01/13 01:40:00;;;;;;;5.65;3.45;;;;;;;12.55;72.14;101213.19;4975857;28;20101;-80
2022/01/13 01:42:29;;;;;;;7.85;4.32;;;;;;;12.46;72.34;101212.03;4974378;28;20062;-79
2022/01/13 01:44:59;;;;;;;8.18;4.25;;;;;;;12.38;72.74;101221.31;4974920;28;20109;-79
2022/01/13 01:47:31;;;;;;;9.93;4.47;;;;;;;12.29;71.77;101225.38;4974379;28;20511;-81
2022/01/13 01:50:09;;;;;;;7.78;3.88;;;;;;;12.23;72.61;101226.91;4974654;28;20050;-81
2022/01/13 01:52:39;;;;;;;7.80;3.17;;;;;;;12.17;72.18;101244.91;4974222;28;20043;-79
2022/01/13 01:55:10;;;;;;;8.70;3.97;;;;;;;12.09;70.96;101235.16;4974468;28;20043;-78
2022/01/13 01:57:38;;;;;;;10.40;4.10;;;;;;;12.03;70.87;101226.34;4974359;28;20059;-79
2022/01/13 02:00:10;;;;;;;6.57;3.40;;;;;;;11.98;71.60;101233.97;4974528;28;20054;-82
2022/01/13 02:02:40;;;;;;;15.98;3.60;;;;;;;11.93;72.26;101236.41;4973471;28;20058;-79
2022/01/13 02:05:09;;;;;;;8.32;3.30;;;;;;;11.81;73.08;101230.78;4974101;28;20047;-79
2022/01/13 02:07:38;;;;;;;6.72;3.28;;;;;;;11.63;74.29;101233.66;4976595;28;20109;-81
2022/01/13 02:10:08;;;;;;;9.70;3.70;;;;;;;11.51;76.56;101236.72;4973653;28;20051;-78
2022/01/13 02:12:42;;;;;;;6.60;3.72;;;;;;;11.43;76.33;101238.22;4973238;28;20054;-78
2022/01/13 02:17:55;;;;;;;8.15;3.50;;;;;;;11.31;77.38;101227.41;4969728;28;20059;-78
2022/01/13 02:20:43;;;;;;;6.22;2.90;;;;;;;11.17;78.42;101218.28;4973943;28;20051;-78
2022/01/13 02:23:12;;;;;;;7.47;3.28;;;;;;;11.07;79.29;101228.34;4973370;28;20063;-79
2022/01/13 02:25:40;;;;;;;6.07;2.85;;;;;;;11.00;78.78;101241.91;4973898;28;20493;-79
2022/01/13 02:28:09;;;;;;;8.25;2.58;;;;;;;10.93;78.94;101242.50;4973829;28;20485;-78
2022/01/13 02:30:37;;;;;;;7.78;3.20;;;;;;;10.89;79.91;101232.88;4972307;28;20047;-79
2022/01/13 02:33:06;;;;;;;6.63;3.17;;;;;;;10.77;79.88;101232.44;4972853;28;20043;-79
2022/01/13 02:35:38;;;;;;;8.97;2.57;;;;;;;10.67;80.95;101232.09;4973347;28;20054;-77
2022/01/13 02:38:16;;;;;;;4.88;2.55;;;;;;;10.60;81.98;101237.84;4973843;28;20046;-77
2022/01/13 02:40:44;;;;;;;5.13;2.65;;;;;;;10.55;82.34;101247.16;4973158;28;20409;-76
2022/01/13 02:43:13;;;;;;;4.80;2.35;;;;;;;10.50;82.53;101253.88;4973210;28;20108;-76
2022/01/13 02:45:58;;;;;;;6.85;3.25;;;;;;;10.48;82.44;101255.50;4973977;28;20110;-75
2022/01/13 02:48:30;;;;;;;8.40;3.90;;;;;;;10.43;82.29;101257.06;4973351;28;20042;-79
2022/01/13 02:51:01;;;;;;;4.60;2.70;;;;;;;10.38;82.65;101263.75;4973828;28;20051;-76
2022/01/13 02:53:30;;;;;;;6.22;3.45;;;;;;;10.32;83.37;101264.38;4959672;28;20547;-78
2022/01/13 02:56:02;;;;;;;7.50;3.58;;;;;;;10.30;83.86;101284.13;4972989;28;20042;-80
2022/01/13 02:58:33;;;;;;;5.97;3.95;;;;;;;10.26;84.19;101308.06;4973057;28;20053;-77
2022/01/13 03:01:02;;;;;;;8.48;3.45;;;;;;;10.24;84.44;101302.88;4973399;28;20372;-78
2022/01/13 03:03:31;;;;;;;8.20;3.78;;;;;;;10.22;84.66;101306.22;4972787;28;20515;-78
2022/01/13 03:06:07;;;;;;;5.32;3.22;;;;;;;10.19;85.67;101309.56;4974325;28;20548;-78
2022/01/13 03:08:35;;;;;;;6.53;3.13;;;;;;;10.17;87.17;101311.22;4975203;28;20054;-78
2022/01/13 03:11:04;;;;;;;6.10;2.85;;;;;;;10.14;87.09;101305.88;4973389;28;20098;-80
2022/01/13 03:13:33;;;;;;;10.05;3.35;;;;;;;10.11;86.88;101299.72;4961504;28;20504;-79
2022/01/13 03:16:06;;;;;;;6.15;2.88;;;;;;;10.06;88.45;101305.59;4973152;28;20047;-77
2022/01/13 03:18:35;;;;;;;5.50;3.13;;;;;;;10.04;89.80;101299.47;4972173;28;20133;-76
2022/01/13 03:21:06;;;;;;;8.18;3.05;;;;;;;10.01;88.68;101288.13;4972632;28;20047;-81
2022/01/13 03:23:35;;;;;;;3.08;1.95;;;;;;;9.94;89.55;101280.94;4972278;28;20046;-76
2022/01/13 03:26:04;;;;;;;3.85;2.05;;;;;;;9.92;89.45;101275.72;4973332;28;20046;-78
2022/01/13 03:28:39;;;;;;;6.80;2.60;;;;;;;9.89;90.17;101278.16;4972777;28;20054;-78
2022/01/13 03:31:08;;;;;;;8.20;2.42;;;;;;;9.83;89.62;101272.78;4972771;28;20043;-78
2022/01/13 03:33:37;;;;;;;7.68;2.60;;;;;;;9.77;89.17;101268.22;4972350;28;20054;-80
2022/01/13 03:36:07;;;;;;;5.05;2.55;;;;;;;9.73;89.43;101274.06;4959634;28;20117;-78
2022/01/13 03:38:36;;;;;;;7.75;2.25;;;;;;;9.68;88.91;101270.41;4972430;28;20140;-80
2022/01/13 03:41:05;;;;;;;6.60;2.15;;;;;;;9.62;89.48;101271.06;4972016;28;20086;-78
2022/01/13 03:43:36;;;;;;;5.93;2.60;;;;;;;9.59;89.92;101281.25;4972036;28;20082;-78
2022/01/13 03:46:04;;;;;;;5.30;2.42;;;;;;;9.54;90.27;101284.47;4972321;28;20110;-79
2022/01/13 03:48:33;;;;;;;6.95;2.65;;;;;;;9.49;90.08;101283.41;4972365;28;20113;-80
2022/01/13 03:51:01;;;;;;;5.07;2.40;;;;;;;9.45;89.61;101284.97;4972766;28;20123;-79
2022/01/13 03:54:11;;;;;;;6.90;2.55;;;;;;;9.40;89.06;101283.91;4972357;28;20050;-78
2022/01/13 03:57:28;;;;;;;5.57;2.55;;;;;;;9.35;89.46;101293.16;4972341;28;20063;-78
2022/01/13 04:00:40;;;;;;;6.50;2.67;;;;;;;9.29;89.62;101298.91;4972378;28;20065;-78
2022/01/13 04:03:08;;;;;;;6.43;2.58;;;;;;;9.23;89.83;101302.13;4972813;28;20101;-79
2022/01/13 04:06:02;;;;;;;6.40;3.03;;;;;;;9.16;89.65;101306.94;4975414;28;20047;-79
2022/01/13 04:08:32;;;;;;;10.95;3.92;;;;;;;9.11;89.91;101301.56;4961763;28;20051;-80
2022/01/13 04:11:18;;;;;;;6.60;3.10;;;;;;;9.06;89.90;101308.25;4972538;28;20043;-80
2022/01/13 04:13:55;;;;;;;8.35;3.55;;;;;;;9.02;89.83;101304.66;4963077;28;20049;-78
2022/01/13 04:16:27;;;;;;;6.82;3.70;;;;;;;8.97;90.14;101308.69;4972672;28;20133;-78
2022/01/13 04:18:58;;;;;;;6.88;3.30;;;;;;;8.91;89.52;101307.53;4972398;28;20054;-80
2022/01/13 04:21:27;;;;;;;6.97;3.70;;;;;;;8.84;90.17;101329.59;4972418;28;20074;-78
2022/01/13 04:23:57;;;;;;;11.93;4.60;;;;;;;8.77;90.09;101333.63;4962616;28;20082;-78
2022/01/13 04:26:28;;;;;;;8.50;4.35;;;;;;;8.70;89.00;101339.28;4972432;28;20089;-76
2022/01/13 04:29:15;;;;;;;8.85;3.53;;;;;;;8.65;91.58;101342.50;4971675;28;20051;-81
2022/01/13 04:31:48;;;;;;;4.93;3.03;;;;;;;8.52;93.58;101341.00;4972212;28;20086;-78
2022/01/13 04:34:18;;;;;;;6.80;3.40;;;;;;;8.45;96.50;101349.28;4971847;28;20093;-83
2022/01/13 04:36:47;;;;;;;7.07;3.40;;;;;;;8.42;97.87;101351.72;4972189;28;20061;-79
2022/01/13 04:39:18;;;;;;;7.47;3.42;;;;;;;8.39;97.86;101352.44;4972071;28;20055;-79
2022/01/13 04:41:48;;;;;;;8.15;3.33;;;;;;;8.35;97.02;101346.22;4972436;28;20054;-78
2022/01/13 04:44:20;;;;;;;6.25;3.22;;;;;;;8.27;97.57;101347.56;4971945;28;20215;-78
2022/01/13 04:46:50;;;;;;;6.28;2.85;;;;;;;8.21;99.62;101357.56;4972642;28;20086;-76
2022/01/13 04:49:19;;;;;;;9.35;3.67;;;;;;;8.16;99.60;101361.63;4972645;28;20046;-81
2022/01/13 04:51:49;;;;;;;5.05;3.45;;;;;;;8.12;98.94;101368.31;4959941;28;20063;-78
2022/01/13 04:54:18;;;;;;;12.25;3.97;;;;;;;8.10;98.80;101359.63;4975343;28;20133;-81
2022/01/13 04:57:05;;;;;;;9.05;3.85;;;;;;;8.07;97.94;101350.88;4976037;28;20046;-80
2022/01/13 04:59:35;;;;;;;15.43;3.80;;;;;;;8.04;98.72;101351.59;4976714;28;20141;-77
2022/01/13 05:02:03;;;;;;;10.25;4.10;;;;;;;8.02;99.05;101345.50;4964832;28;20059;-80
2022/01/13 05:04:32;;;;;;;9.57;4.32;;;;;;;7.98;99.24;101343.56;4975918;28;20053;-78
2022/01/13 05:07:00;;;;;;;10.82;3.70;;;;;;;7.95;99.66;101351.16;4975531;28;20054;-78
2022/01/13 05:09:29;;;;;;;8.38;3.63;;;;;;;7.93;100.00;101347.63;4976043;28;20054;-79
2022/01/13 05:11:59;;;;;;;10.85;4.15;;;;;;;7.90;100.00;101352.59;4976123;28;20059;-79
2022/01/13 05:14:30;;;;;;;7.15;3.95;;;;;;;7.88;100.00;101341.31;4977461;28;20182;-80
2022/01/13 05:17:06;;;;;;;7.00;3.13;;;;;;;7.84;100.00;101342.88;4974702;28;20047;-82
2022/01/13 05:19:39;;;;;;;8.50;3.88;;;;;;;7.83;100.00;101335.94;4975885;28;20105;-78
2022/01/13 05:22:16;;;;;;;;;;;;;;;7.74;100.00;101320.03;4975035;28;20145;-80
2022/01/13 05:24:49;;;;;;;7.65;3.72;;;;;;;7.63;100.00;101316.03;4974905;28;20291;-80
2022/01/13 05:27:19;;;;;;;9.05;4.35;;;;;;;7.44;100.00;101315.09;4974874;28;20702;-82
2022/01/13 05:29:47;;;;;;;9.70;3.38;;;;;;;7.36;100.00;101315.53;4975706;28;20058;-81
2022/01/13 05:32:18;;;;;;;7.18;3.35;;;;;;;7.36;100.00;101315.53;4974797;28;20058;-80
2022/01/13 05:34:46;;;;;;;8.18;2.92;;;;;;;7.37;100.00;101296.69;4975445;28;20047;-79
2022/01/13 05:37:15;;;;;;;6.35;2.83;;;;;;;7.40;100.00;101296.84;4974418;28;20110;-79
2022/01/13 05:39:43;;;;;;;5.03;2.80;;;;;;;7.41;100.00;101304.66;4975172;28;20055;-78
2022/01/13 05:42:12;;;;;;;7.13;2.85;;;;;;;7.40;100.00;101315.78;4974604;28;20055;-79
2022/01/13 05:44:40;;;;;;;5.85;2.60;;;;;;;7.40;100.00;101318.34;4973935;28;20054;-79
2022/01/13 05:47:10;;;;;;;5.82;2.67;;;;;;;7.33;100.00;101305.97;4974995;28;20497;-79
2022/01/13 05:49:43;;;;;;;3.90;2.10;;;;;;;7.21;100.00;101295.91;4974754;28;20058;-79
2022/01/13 05:52:12;;;;;;;6.28;2.50;;;;;;;7.14;100.00;101309.25;4974211;28;20130;-78
2022/01/13 05:54:41;;;;;;;10.57;3.70;;;;;;;7.10;100.00;101309.91;4974299;28;20138;-79
2022/01/13 05:57:10;;;;;;;12.82;4.53;;;;;;;7.13;100.00;101307.50;4974411;28;20090;-79
2022/01/13 05:59:38;;;;;;;8.25;3.95;;;;;;;7.05;100.00;101293.34;4976616;28;20054;-79
2022/01/13 06:02:07;;;;;;;10.63;4.22;;;;;;;7.08;100.00;101314.09;4974273;28;20117;-80
2022/01/13 06:04:36;;;;;;;18.90;7.28;;;;;;;7.09;100.00;101336.44;4974948;28;20047;-79
2022/01/13 06:07:06;;;;;;;16.83;5.03;;;;;;;7.08;100.00;101329.56;4974627;28;20502;-80
2022/01/13 06:09:34;;;;;;;11.70;4.68;;;;;;;7.09;100.00;101327.03;4974218;28;20078;-81
2022/01/13 06:12:03;;;;;;;16.08;5.70;;;;;;;7.11;100.00;101327.13;4973566;28;20047;-80
2022/01/13 06:14:32;;;;;;;10.52;4.90;;;;;;;7.09;100.00;101315.88;4975293;28;20055;-80
2022/01/13 06:17:00;;;;;;;20.77;5.80;;;;;;;7.06;100.00;101320.88;4973944;28;20109;-78
2022/01/13 06:19:29;;;;;;;12.73;5.35;;;;;;;7.05;100.00;101327.66;4973764;28;20492;-79
2022/01/13 06:21:57;;;;;;;9.98;4.13;;;;;;;7.05;100.00;101334.50;4973621;28;20412;-78
2022/01/13 06:24:27;;;;;;;11.20;4.35;;;;;;;7.04;100.00;101338.78;4973187;28;20054;-79
2022/01/13 06:26:56;;;;;;;9.60;3.92;;;;;;;7.05;100.00;101353.41;4973824;28;20050;-78
2022/01/13 06:29:25;;;;;;;9.88;3.78;;;;;;;7.03;100.00;101351.56;4973721;28;20054;-77
2022/01/13 06:31:54;;;;;;;8.70;4.15;;;;;;;7.00;100.00;101352.28;4973640;28;20125;-78
2022/01/13 06:34:22;;;;;;;10.20;3.42;;;;;;;7.02;100.00;101349.81;4974058;28;20051;-78
2022/01/13 06:36:51;;;;;;;9.10;4.10;;;;;;;7.09;100.00;101351.91;4974201;28;20046;-79
2022/01/13 06:39:19;;;;;;;7.97;4.30;;;;;;;7.09;100.00;101349.31;4974009;28;20057;-78
2022/01/13 06:41:50;;;;;;;6.47;3.72;;;;;;;7.05;100.00;101340.53;4974826;28;20105;-78
2022/01/13 06:44:18;;;;;;;8.70;3.55;;;;;;;6.97;100.00;101346.09;4974545;28;20148;-78
2022/01/13 06:46:47;;;;;;;7.68;3.97;;;;;;;6.93;100.00;101340.78;4974084;28;20138;-78
2022/01/13 06:49:15;;;;;;;6.38;3.15;;;;;;;6.94;100.00;101315.97;4973875;28;20046;-77
2022/01/13 06:51:44;;;;;;;7.18;3.58;;;;;;;6.95;100.00;101312.56;4974935;28;20051;-78
2022/01/13 06:54:12;;;;;;;10.68;3.58;;;;;;;6.98;100.00;101301.53;4973032;28;20047;-77
2022/01/13 06:56:41;;;;;;;6.57;3.03;;;;;;;6.97;100.00;101308.38;4975067;28;20102;-77
2022/01/13 06:59:13;;;;;;;5.20;2.80;;;;;;;6.97;100.00;101299.78;4976157;28;20055;-77
2022/01/13 07:01:44;;;;;;;5.45;2.83;;;;;;;6.98;100.00;101291.25;4974960;28;20511;-77
2022/01/13 07:04:13;;;;;;;4.95;2.78;;;;;;;6.91;100.00;101285.78;4973936;28;20082;-77
2022/01/13 07:06:43;;;;;;;9.30;3.28;;;;;;;6.88;100.00;101282.19;4974323;28;20082;-77
2022/01/13 07:09:13;;;;;;;7.57;3.13;;;;;;;6.82;100.00;101290.44;4973990;28;20556;-77
2022/01/13 07:11:42;;;;;;;10.98;3.35;;;;;;;6.78;100.00;101287.63;4972658;28;20047;-77
2022/01/13 07:14:13;;;;;;;8.10;3.33;;;;;;;6.78;100.00;101288.53;4973626;28;20122;-77
2022/01/13 07:16:43;;;;;;;6.53;2.78;;;;;;;6.81;100.00;101273.25;4973537;28;20046;-77
2022/01/13 07:19:12;;;;;;;6.43;2.97;;;;;;;6.85;100.00;101259.75;4973445;28;20055;-77
2022/01/13 07:21:42;;;;;;;7.30;2.80;;;;;;;6.85;100.00;101275.19;4973632;28;20572;-77
2022/01/13 07:24:10;;;;;;;9.75;3.08;;;;;;;6.86;100.00;101279.50;4972309;28;20054;-77
2022/01/13 07:26:39;;;;;;;5.38;2.53;;;;;;;6.86;100.00;101297.53;4973987;28;20051;-78
2022/01/13 07:29:09;;;;;;;9.48;3.90;;;;;;;6.89;100.00;101290.00;4960065;28;20460;-78
2022/01/13 07:31:39;;;;;;;11.82;4.15;;;;;;;6.90;100.00;101278.88;4973810;28;20049;-77
2022/01/13 07:34:08;;;;;;;8.10;4.07;;;;;;;6.93;100.00;101260.16;4973154;28;20069;-77
2022/01/13 07:36:38;;;;;;;11.57;4.60;;;;;;;6.96;100.00;101256.84;4973008;28;20137;-76
2022/01/13 07:39:07;;;;;;;9.95;4.00;;;;;;;6.98;100.00;101262.97;4972859;28;20792;-77
2022/01/13 07:41:38;;;;;;;11.90;4.38;;;;;;;6.99;100.00;101270.75;4973383;28;20109;-77
2022/01/13 07:44:07;;;;;;;6.70;3.60;;;;;;;7.03;100.00;101276.94;4972501;28;20042;-77
2022/01/13 07:46:40;;;;;;;6.30;3.53;;;;;;;7.08;100.00;101267.78;4973150;28;20070;-78
2022/01/13 07:49:09;;;;;;;5.85;3.05;;;;;;;7.13;100.00;101274.06;4973005;28;20117;-77
2022/01/13 07:51:37;;;;;;;8.38;2.95;;;;;;;7.14;100.00;101271.53;4973378;28;20097;-78
2022/01/13 07:54:06;;;;;;;6.88;2.85;;;;;;;7.16;100.00;101265.59;4960104;28;20063;-77
2022/01/13 07:56:35;;;;;;;5.20;2.53;;;;;;;7.15;100.00;101262.16;4973121;28;20097;-77
2022/01/13 07:59:04;;;;;;;4.28;2.85;;;;;;;7.12;100.00;101259.41;4976554;28;20064;-77
2022/01/13 08:01:32;;;;;;;6.85;3.00;;;;;;;7.13;100.00;101259.50;4973097;28;20066;-78
2022/01/13 08:04:02;;;;;;;9.35;3.78;;;;;;;7.09;100.00;101261.81;4972933;28;20047;-78
2022/01/13 08:06:31;;;;;;;7.72;3.38;;;;;;;7.11;100.00;101262.78;4973233;28;20151;-78
2022/01/13 08:08:59;;;;;;;7.32;3.47;;;;;;;7.18;100.00;101249.44;4972835;28;20047;-77
2022/01/13 08:11:28;;;;;;;6.10;2.70;;;;;;;7.24;100.00;101254.91;4972584;28;20133;-77
2022/01/13 08:13:56;;;;;;;7.07;2.90;;;;;;;7.30;100.00;101265.47;4972628;28;20050;-76
2022/01/13 08:16:32;;;;;;;14.38;3.35;;;;;;;7.35;100.00;101263.16;4972385;28;20054;-78
2022/01/13 08:21:48;;;;;;;8.13;3.05;;;;;;;7.49;100.00;101276.72;4970770;28;20550;-77
2022/01/13 08:24:17;;;;;;;4.18;2.40;;;;;;;7.53;100.00;101284.66;4966346;28;20078;-77
2022/01/13 08:26:45;;;;;;;7.22;2.97;;;;;;;7.54;100.00;101285.56;4972980;28;20059;-77
2022/01/13 08:29:14;;;;;;;5.97;2.70;;;;;;;7.49;100.00;101279.28;4975929;28;20058;-76
2022/01/13 08:31:42;;;;;;;8.65;3.13;;;;;;;7.48;100.00;101283.56;4976652;28;20505;-76
2022/01/13 08:34:14;;;;;;;6.32;3.00;;;;;;;7.41;100.00;101272.88;4976420;28;20101;-76
2022/01/13 08:36:42;;;;;;;5.53;3.20;;;;;;;7.42;100.00;101269.50;4976508;28;20059;-76
2022/01/13 08:39:11;;;;;;;5.82;2.60;;;;;;;7.37;100.00;101263.22;4977993;28;20555;-77
2022/01/13 08:41:41;;;;;;;8.07;3.05;;;;;;;7.34;100.00;101257.13;4977857;28;20097;-76
2022/01/13 08:44:10;;;;;;;5.22;2.63;;;;;;;7.33;100.00;101273.38;4976601;28;20653;-76
2022/01/13 08:46:38;;;;;;;5.68;2.53;;;;;;;7.33;100.00;101264.78;4977580;28;20047;-76
2022/01/13 08:49:07;;;;;;;7.40;2.78;;;;;;;7.31;100.00;101254.41;4976369;28;20125;-77
2022/01/13 08:51:37;;;;;;;7.20;3.30;;;;;;;7.36;100.00;101238.31;4977047;28;20057;-77
2022/01/13 08:54:06;;;;;;;6.70;2.50;;;;;;;7.41;100.00;101250.59;4976117;28;20038;-77
2022/01/13 08:56:34;;;;;;;8.23;2.70;;;;;;;7.44;100.00;101258.47;4976190;28;20102;-77
2022/01/13 08:59:03;;;;;;;6.55;2.33;;;;;;;7.50;100.00;101250.16;4978946;28;20051;-77
2022/01/13 09:01:32;;;;;;;4.05;2.20;;;;;;;7.55;100.00;101246.13;4975233;28;20097;-78
2022/01/13 09:04:00;;;;;;;5.68;2.55;;;;;;;7.61;100.00;101245.56;4975659;28;20051;-78
2022/01/13 09:06:29;;;;;;;6.13;2.97;;;;;;;7.64;100.00;101249.16;4975769;28;20049;-78
2022/01/13 09:08:59;;;;;;;5.43;3.13;;;;;;;7.68;100.00;101238.19;4975824;28;20113;-78
2022/01/13 09:11:29;;;;;;;8.40;3.53;;;;;;;7.69;100.00;101234.81;4974932;28;20674;-78
2022/01/13 09:13:58;;;;;;;7.97;3.15;;;;;;;7.73;100.00;101230.69;4974845;28;20085;-78
2022/01/13 09:16:29;;;;;;;6.88;2.95;;;;;;;7.79;100.00;101235.25;4977470;28;20062;-79
2022/01/13 09:19:09;;;;;;;5.47;2.75;;;;;;;7.83;100.00;101229.44;4975113;28;20059;-77
2022/01/13 09:21:39;;;;;;;8.30;3.17;;;;;;;7.85;100.00;101220.09;4975425;28;20054;-78
2022/01/13 09:24:12;;;;;;;7.43;3.25;;;;;;;7.88;100.00;101230.53;4975301;28;20047;-78
2022/01/13 09:26:40;;;;;;;5.28;2.95;;;;;;;7.91;100.00;101220.41;4975091;28;20090;-78
2022/01/13 09:29:10;;;;;;;7.10;3.00;;;;;;;7.92;100.00;101223.03;4956178;28;20474;-77
2022/01/13 09:31:40;;;;;;;6.10;2.88;;;;;;;7.93;100.00;101223.94;4968190;28;20459;-78
2022/01/13 09:34:10;;;;;;;7.25;3.10;;;;;;;7.95;100.00;101217.16;4974980;28;20061;-77
2022/01/13 09:36:39;;;;;;;9.20;2.83;;;;;;;7.98;100.00;101212.16;4974971;28;20051;-78
2022/01/13 09:39:11;;;;;;;5.35;2.17;;;;;;;8.00;100.00;101205.38;4974145;28;20496;-77
2022/01/13 09:41:43;;;;;;;5.78;2.38;;;;;;;8.03;100.00;101210.66;4975057;28;20039;-77
2022/01/13 09:44:13;;;;;;;4.55;2.40;;;;;;;8.08;100.00;101211.75;4974500;28;20062;-77
2022/01/13 09:46:42;;;;;;;6.05;3.03;;;;;;;8.13;100.00;101202.56;4974994;28;20051;-77
2022/01/13 09:49:11;;;;;;;4.63;2.63;;;;;;;8.17;100.00;101209.59;4974868;28;20043;-77
2022/01/13 09:51:44;;;;;;;6.78;2.90;;;;;;;8.21;100.00;101205.47;4974667;28;20141;-78
2022/01/13 09:54:16;;;;;;;3.85;2.40;;;;;;;8.26;100.00;101197.97;4960779;28;20125;-78
2022/01/13 09:56:45;;;;;;;5.40;2.58;;;;;;;8.29;100.00;101208.41;4975985;28;20047;-77
2022/01/13 09:59:13;;;;;;;5.70;2.53;;;;;;;8.31;100.00;101214.50;4976648;28;20145;-77
2022/01/13 10:01:42;;;;;;;4.72;2.65;;;;;;;8.27;100.00;101215.19;4974539;28;20046;-76
2022/01/13 10:04:10;;;;;;;5.00;2.00;;;;;;;8.26;100.00;101223.75;4974557;28;20564;-77
2022/01/13 10:06:47;;;;;;;4.60;2.22;;;;;;;8.26;100.00;101223.75;4974457;28;20122;-77
2022/01/13 10:09:17;;;;;;;3.85;2.00;;;;;;;8.28;100.00;101211.81;4974745;28;20077;-77
2022/01/13 10:11:53;;;;;;;5.45;2.75;;;;;;;8.30;100.00;101198.16;4971122;28;20109;-77
2022/01/13 10:17:17;;;;;;;3.67;2.45;;;;;;;8.38;100.00;101195.94;4963901;28;20162;-78
2022/01/13 10:19:47;;;;;;;4.55;2.83;;;;;;;8.41;100.00;101187.47;4974207;28;20051;-78
2022/01/13 10:22:19;;;;;;;4.50;2.35;;;;;;;8.46;100.00;101186.00;4974183;28;20496;-77
2022/01/13 10:24:52;;;;;;;5.05;2.88;;;;;;;8.49;100.00;101160.34;4974119;28;20408;-77
2022/01/13 10:27:21;;;;;;;;;;;;;;;8.52;100.00;101165.63;4974309;28;20053;-77
2022/01/13 10:29:52;;;;;;;3.97;2.17;;;;;;;8.52;100.00;101171.69;4974521;28;20001;-77
2022/01/13 10:32:22;;;;;;;4.80;2.75;;;;;;;8.49;100.00;101170.66;4974066;28;20046;-78
2022/01/13 10:34:57;;;;;;;5.20;2.42;;;;;;;8.47;100.00;101154.25;4985187;28;20042;-78
2022/01/13 10:37:32;;;;;;;5.50;2.22;;;;;;;8.47;100.00;101151.66;4975546;28;20433;-78
2022/01/13 10:40:06;;;;;;;5.57;2.53;;;;;;;8.47;100.00;101155.13;4976241;28;20485;-78
2022/01/13 10:45:30;;;;;;;7.78;2.75;;;;;;;8.53;100.00;101152.81;4973955;28;20058;-78
2022/01/13 10:48:00;;;;;;;6.28;2.45;;;;;;;8.51;100.00;101149.28;4961005;28;20054;-78
2022/01/13 10:50:31;;;;;;;6.28;2.40;;;;;;;8.51;100.00;101148.41;4973031;28;20794;-78
2022/01/13 10:53:16;;;;;;;5.93;2.58;;;;;;;8.49;100.00;101153.50;4968858;28;20043;-78
2022/01/13 10:55:49;;;;;;;3.72;2.13;;;;;;;8.50;100.00;101142.38;4983308;28;20047;-78
2022/01/13 10:58:19;;;;;;;5.90;2.15;;;;;;;8.52;100.00;101147.56;4963558;28;20079;-78
2022/01/13 11:00:51;;;;;;;2.75;1.55;;;;;;;8.52;100.00;101133.00;4974444;28;20110;-78
2022/01/13 11:03:20;;;;;;;3.92;1.55;;;;;;;8.57;100.00;101139.25;4976733;28;20105;-78
2022/01/13 11:05:51;;;;;;;2.80;1.50;;;;;;;8.64;100.00;101129.19;4983058;28;20047;-78
2022/01/13 11:08:27;;;;;;;1.65;1.20;;;;;;;8.72;100.00;101130.41;4961074;28;20511;-78
2022/01/13 11:11:00;;;;;;;2.08;1.40;;;;;;;8.76;100.00;101127.13;4973240;28;20086;-78
2022/01/13 11:13:30;;;;;;;;;;;;;;;8.83;100.00;101136.03;4960231;28;20576;-78
2022/01/13 11:15:59;;;;;;;2.88;1.50;;;;;;;8.86;100.00;101133.56;4975383;28;19922;-78
2022/01/13 11:18:30;;;;;;;4.25;1.90;;;;;;;8.90;100.00;101138.91;4972117;28;20138;-79
2022/01/13 11:21:01;;;;;;;2.65;1.70;;;;;;;8.92;100.00;101150.19;4973231;28;20101;-78
2022/01/13 11:23:30;;;;;;;4.00;2.20;;;;;;;8.94;100.00;101155.44;4972588;28;20053;-79
2022/01/13 11:26:01;;;;;;;5.20;1.88;;;;;;;8.96;100.00;101159.84;4972092;28;20476;-78
2022/01/13 11:28:30;;;;;;;3.83;2.00;;;;;;;8.98;100.00;101165.06;4959057;28;20054;-78
2022/01/13 11:30:58;;;;;;;5.07;2.25;;;;;;;9.00;100.00;101150.50;4973572;28;20534;-79
2022/01/13 11:33:26;;;;;;;4.43;2.63;;;;;;;9.00;100.00;101182.38;4959698;28;20462;-79
2022/01/13 11:35:57;;;;;;;4.00;2.38;;;;;;;9.01;100.00;101197.03;4967209;28;20102;-77
2022/01/13 11:38:27;;;;;;;3.63;2.50;;;;;;;9.00;100.00;101197.88;4965753;28;20063;-79
2022/01/13 11:41:00;;;;;;;4.72;2.58;;;;;;;8.98;100.00;101194.34;4972658;28;20050;-78
2022/01/13 11:43:39;;;;;;;;;;;;;;;8.99;100.00;101209.00;4973160;28;20066;-78
2022/01/13 11:46:18;;;;;;;3.83;2.22;;;;;;;8.97;100.00;101174.50;4972806;28;19922;-77
2022/01/13 11:49:10;;;;;;;4.45;2.30;;;;;;;8.96;100.00;101179.59;4973001;28;20082;-77
2022/01/13 11:51:47;;;;;;;3.42;2.40;;;;;;;8.90;100.00;101169.88;4972063;28;20499;-77
2022/01/13 11:54:28;;;;;;;3.67;2.22;;;;;;;8.87;100.00;101177.50;4973811;28;20101;-78
2022/01/13 11:57:14;;;;;;;5.60;2.17;;;;;;;8.87;100.00;101174.94;4974062;28;20457;-77
2022/01/13 12:00:15;;;;;;;8.02;2.45;;;;;;;8.79;100.00;101179.75;4967945;28;20515;-77
2022/01/13 12:02:44;;;;;;;6.03;2.15;;;;;;;8.77;100.00;101178.81;4972509;28;20653;-77
2022/01/13 12:05:17;;;;;;;5.88;2.47;;;;;;;8.73;100.00;101171.75;4972697;28;20050;-78
2022/01/13 12:07:45;;;;;;;;;;;;;;;8.75;100.00;101171.78;4969877;28;20046;-79